Riverton, Connecticut
Current Conditions -  °F | °C
As of 8:51 PM on Saturday 25 Oct 2014 (Local Time) from KBDL Reporting Station
Broken Clouds Broken Clouds  
Wind Chill: 58°   Ceiling: 25000
Heat Index: 58°   Visibility: 10mi
Dew Point: 42°   Wind: 6mph
Humidity: 56%   Direction: 200°SSW
Pressure: 29.56"   Gusts: NA
Location:  41.96°N, 73.02°W
Report Text: KBDL 260051Z 20005KT 10SM SCT100 BKN250 14/06 A2956 RMK AO2 SLP008 T01440056
Loading
Personal Weather Stations






























Interactive Weather Map
Tropical Storm Tracking
New forecast layout! Learn more

10-Day Weather Forecast

Advertisements
Track Severe Weather on mobile